Airfield :
LOGIN :

Register | Disclaimer

   EN    FR    IT 

 










Legend :    VFR   Marginal VFR   IFR   Intensive IFR   Very Intensive IFR
Visi :
Ceiling :
>= 8 km
>= 3000ft
5 to 8 km
1000 to 3000 ft
1500m to 5 km
500 to 1000 ft
800 to 1500m
200 to 500 ft
< 800m
< 200 ft
Symbols :   Thunderstorms  Fog  Heavy snow  Heavy precipitations  Wind > 20 kt
SIGMETs :     Misc.  Thunderstorms  Icing  Turbulence  Mountain Waves  Volcanic Ashes







- Airport Elevation : 364 ft
- Download approach charts


LFAQ - Albert Bray

CURRENT METAR :
  • 161730Z AUTO 33010KT CAVOK 22/16 Q1014

EXPIRED METARs :
  • 161700Z AUTO 33011KT CAVOK 23/16 Q1014 NOSIG
  • 161630Z AUTO 31013KT CAVOK 23/16 Q1014 NOSIG
  • 161600Z AUTO 32014KT CAVOK 24/16 Q1014 NOSIG
  • 161530Z AUTO 31014KT CAVOK 24/17 Q1014 NOSIG
  • 161500Z AUTO 30013KT CAVOK 26/18 Q1014 NOSIG

TAF TAF LFAQ
Valid from the 16 at 15:00 until the 17 at 00:00 UTC


161400Z 1615/1624 30010KT 9999 SCT040
TEMPO 1619/1624 4000 SHRA BKN015 BKN040CB
PROB30
TEMPO 1619/1621 30015G25KT TSRA
PROB40
TEMPO 1621/1624 2000 RA BKN008 BKN040CB
No reported NOTAMs for that airfield.



MET'MAP, your aeronautical weather chart ! - Copyright ORBIFLY December 2007 - Disclaimer

ORBIFLY MET'MAP TEAM :

Programming & Development : Alexandra Zaïnal
Concept & Development : Baudouin d'Aumeries
Co-Development & Prog : Marc-Olivier Méhu
Technical & hardware support : Manuel Goepfert

Contact : metmap@orbifly.com




SOURCES & CREDITS :

   NOAA